Time;durP1;ratioP1;P1;durP2;ratioP2;P2;SDS_P1;SDS_P2;PMS_P1;PMS_P2;Temp;Humidity;BMP_temperature;BMP_pressure;BME280_temperature;BME280_humidity;BME280_pressure;Samples;Min_cycle;Max_cycle;Signal;HPM_P1;HPM_P2
2022/11/20 05:04:33;;;;;;;1.88;1.77;;;6.60;99.90;;;;;;5970115;23;20266;-65
2022/11/20 05:06:59;;;;;;;2.33;2.13;;;6.60;99.90;;;;;;4938927;29;20256;-65
2022/11/20 05:09:24;;;;;;;2.83;2.50;;;6.60;99.90;;;;;;4938973;29;20690;-67
2022/11/20 05:11:50;;;;;;;2.37;2.17;;;6.60;99.90;;;;;;4953752;29;20594;-65
2022/11/20 05:14:15;;;;;;;3.70;2.27;;;6.60;99.90;;;;;;4938407;29;20203;-66
2022/11/20 05:16:41;;;;;;;5.17;2.90;;;6.60;99.90;;;;;;4938948;29;20189;-66
2022/11/20 05:19:07;;;;;;;4.70;2.40;;;6.60;99.90;;;;;;4937281;29;20726;-65
2022/11/20 05:21:32;;;;;;;2.80;2.10;;;6.60;99.90;;;;;;4938670;29;20424;-68
2022/11/20 05:23:58;;;;;;;3.13;2.83;;;6.60;99.90;;;;;;4938044;29;20565;-66
2022/11/20 05:26:24;;;;;;;3.13;2.20;;;6.60;99.90;;;;;;4938725;29;20237;-68
2022/11/20 05:28:50;;;;;;;2.10;1.90;;;6.60;99.90;;;;;;4938356;29;20216;-66
2022/11/20 05:31:19;;;;;;;2.33;2.22;;;6.60;99.90;;;;;;4938535;29;20177;-67
2022/11/20 05:33:44;;;;;;;1.70;1.60;;;6.70;99.90;;;;;;4937080;29;20196;-67
2022/11/20 05:36:12;;;;;;;2.67;1.97;;;6.70;99.90;;;;;;4937923;29;20532;-67
2022/11/20 05:38:38;;;;;;;2.10;1.92;;;6.60;99.90;;;;;;4938518;29;20264;-67
2022/11/20 05:41:14;;;;;;;1.97;1.87;;;6.60;99.90;;;;;;4938374;29;20566;-67
2022/11/20 05:43:42;;;;;;;3.85;1.85;;;6.70;99.90;;;;;;4936852;29;20331;-65
2022/11/20 05:46:09;;;;;;;2.25;1.95;;;6.70;99.90;;;;;;4938200;29;20240;-66
2022/11/20 05:48:36;;;;;;;1.80;1.70;;;6.70;99.90;;;;;;4938042;29;20561;-67
2022/11/20 05:51:04;;;;;;;2.10;1.88;;;6.70;99.90;;;;;;4938008;29;20209;-67
2022/11/20 05:53:30;;;;;;;2.97;2.30;;;6.70;99.90;;;;;;4937578;29;20184;-66
2022/11/20 05:56:02;;;;;;;2.73;2.10;;;6.80;99.90;;;;;;4937933;29;20181;-69
2022/11/20 05:58:28;;;;;;;1.88;1.75;;;6.80;99.90;;;;;;4936884;29;20448;-66
2022/11/20 06:00:54;;;;;;;1.85;1.70;;;6.80;99.90;;;;;;4937696;29;20220;-67
2022/11/20 06:03:20;;;;;;;2.90;1.87;;;6.80;99.90;;;;;;4936871;29;20182;-66
2022/11/20 06:05:46;;;;;;;2.58;2.38;;;6.80;99.90;;;;;;4937119;29;20452;-64
2022/11/20 06:08:12;;;;;;;1.70;1.50;;;6.90;99.90;;;;;;4936092;29;20264;-65
2022/11/20 06:10:38;;;;;;;2.10;1.90;;;6.90;99.90;;;;;;4935676;29;20490;-66
2022/11/20 06:13:03;;;;;;;1.60;1.50;;;6.90;99.90;;;;;;4935786;29;20420;-65
2022/11/20 06:15:29;;;;;;;2.00;1.90;;;6.90;99.90;;;;;;4935799;29;20228;-66
2022/11/20 06:17:55;;;;;;;2.63;1.70;;;7.00;99.90;;;;;;4936140;29;20194;-67
2022/11/20 06:20:21;;;;;;;2.30;1.75;;;7.00;99.90;;;;;;4936262;29;20168;-66
2022/11/20 06:22:47;;;;;;;2.58;2.38;;;7.00;99.90;;;;;;4936773;29;20264;-67
2022/11/20 06:25:13;;;;;;;2.03;1.90;;;7.00;99.90;;;;;;4937546;29;20325;-67
2022/11/20 06:27:39;;;;;;;2.20;1.80;;;7.00;99.90;;;;;;4937336;29;20413;-65
2022/11/20 06:30:05;;;;;;;2.53;1.80;;;7.00;99.90;;;;;;4937495;29;20496;-67
2022/11/20 06:32:33;;;;;;;1.65;1.55;;;7.00;99.90;;;;;;4936999;29;20287;-66
2022/11/20 06:34:58;;;;;;;1.88;1.77;;;7.00;99.90;;;;;;4936695;29;20219;-65
2022/11/20 06:37:24;;;;;;;1.83;1.73;;;7.00;99.90;;;;;;4937127;29;20173;-66
2022/11/20 06:39:49;;;;;;;2.00;1.90;;;6.90;99.90;;;;;;4936918;29;20341;-67
2022/11/20 06:42:15;;;;;;;2.30;1.70;;;6.90;99.90;;;;;;4936939;29;20216;-66
2022/11/20 06:44:40;;;;;;;2.17;1.80;;;6.90;99.90;;;;;;4936236;29;20188;-65
2022/11/20 06:47:06;;;;;;;1.47;1.37;;;6.90;99.90;;;;;;4936841;29;20185;-65
2022/11/20 06:49:31;;;;;;;1.70;1.60;;;6.90;99.90;;;;;;4936697;29;20191;-67
2022/11/20 06:51:57;;;;;;;1.90;1.70;;;6.80;99.90;;;;;;4936971;29;20183;-68
2022/11/20 06:54:23;;;;;;;1.93;1.83;;;6.80;99.90;;;;;;4936269;29;20197;-66
2022/11/20 06:56:48;;;;;;;1.60;1.50;;;6.90;99.90;;;;;;4936869;29;20212;-66
2022/11/20 06:59:14;;;;;;;2.90;1.83;;;6.90;99.90;;;;;;4936594;29;20193;-67
2022/11/20 07:01:40;;;;;;;2.13;1.93;;;6.90;99.90;;;;;;4936436;29;20180;-67
2022/11/20 07:04:05;;;;;;;1.80;1.70;;;6.90;99.90;;;;;;4936380;29;20199;-67
2022/11/20 07:06:31;;;;;;;1.70;1.60;;;6.90;99.90;;;;;;4936682;29;21039;-67
2022/11/20 07:08:57;;;;;;;1.43;1.37;;;6.90;99.90;;;;;;4936029;29;20667;-68
2022/11/20 07:11:23;;;;;;;2.37;1.83;;;6.80;99.90;;;;;;4936436;29;20260;-66
2022/11/20 07:13:49;;;;;;;1.23;1.13;;;6.80;99.90;;;;;;4936266;29;20492;-67
2022/11/20 07:16:14;;;;;;;1.97;1.60;;;6.90;99.90;;;;;;4936485;29;20412;-67
2022/11/20 07:18:40;;;;;;;1.60;1.50;;;6.90;99.90;;;;;;4936066;29;20213;-68
2022/11/20 07:21:09;;;;;;;1.40;1.40;;;7.00;99.90;;;;;;4936544;29;20180;-67
2022/11/20 07:23:37;;;;;;;1.80;1.58;;;7.00;99.90;;;;;;4935842;29;20592;-66
2022/11/20 07:26:08;;;;;;;1.58;1.35;;;7.10;99.90;;;;;;4934938;29;20197;-67
2022/11/20 07:28:34;;;;;;;2.00;1.80;;;7.10;99.90;;;;;;4936368;29;20180;-68
2022/11/20 07:31:00;;;;;;;1.80;1.70;;;7.10;99.90;;;;;;4936173;29;20174;-67
2022/11/20 07:33:26;;;;;;;1.88;1.63;;;7.20;99.90;;;;;;4934554;29;20181;-66
2022/11/20 07:35:51;;;;;;;1.60;1.50;;;7.20;99.90;;;;;;4934999;29;20184;-67
2022/11/20 07:38:17;;;;;;;2.13;1.93;;;7.20;99.90;;;;;;4935575;29;20606;-67
2022/11/20 07:40:43;;;;;;;2.00;1.83;;;7.20;99.90;;;;;;4936614;29;20268;-67
2022/11/20 07:43:08;;;;;;;2.60;1.93;;;7.30;99.90;;;;;;4935806;29;20213;-66
2022/11/20 07:45:34;;;;;;;2.17;1.80;;;7.30;99.90;;;;;;4936116;29;20652;-67
2022/11/20 07:48:00;;;;;;;1.60;1.50;;;7.40;99.90;;;;;;4936118;29;20176;-67
2022/11/20 07:50:25;;;;;;;2.00;1.67;;;7.50;99.90;;;;;;4935974;29;20205;-66
2022/11/20 07:52:52;;;;;;;1.70;1.60;;;7.50;99.90;;;;;;4935246;29;20169;-68
2022/11/20 07:55:18;;;;;;;1.70;1.60;;;7.60;99.90;;;;;;4936040;29;20194;-65
2022/11/20 07:57:43;;;;;;;2.80;2.45;;;7.70;99.90;;;;;;4936091;29;20184;-68
2022/11/20 08:00:11;;;;;;;1.47;1.47;;;7.80;99.90;;;;;;4935638;29;20665;-72
2022/11/20 08:02:40;;;;;;;1.55;1.45;;;7.90;99.90;;;;;;4935320;29;20173;-68
2022/11/20 08:05:08;;;;;;;1.40;1.40;;;7.90;99.90;;;;;;4935447;29;20212;-69
2022/11/20 08:07:38;;;;;;;1.50;1.40;;;7.90;99.90;;;;;;4935720;29;20593;-68
2022/11/20 08:10:04;;;;;;;1.65;1.45;;;7.90;99.90;;;;;;4934600;29;20279;-70
2022/11/20 08:15:14;;;;;;;1.75;1.65;;;7.80;99.90;;;;;;4935497;29;20207;-69
2022/11/20 08:17:40;;;;;;;1.23;1.13;;;7.90;99.90;;;;;;4935627;29;20170;-64
2022/11/20 08:20:06;;;;;;;1.57;1.40;;;7.90;99.90;;;;;;4935681;29;20227;-66
2022/11/20 08:22:32;;;;;;;1.90;1.80;;;7.90;99.90;;;;;;4938981;29;20169;-65
2022/11/20 08:24:57;;;;;;;1.90;1.30;;;7.90;99.90;;;;;;4939453;29;20209;-66
2022/11/20 08:27:23;;;;;;;1.63;1.37;;;7.90;99.90;;;;;;4939196;29;20177;-64
2022/11/20 08:29:49;;;;;;;1.20;1.20;;;7.80;99.90;;;;;;4938296;29;20173;-63
2022/11/20 08:32:14;;;;;;;1.40;1.37;;;7.90;99.90;;;;;;4939482;29;20241;-65
2022/11/20 08:34:40;;;;;;;2.00;1.90;;;7.90;99.90;;;;;;4938998;29;20281;-66
2022/11/20 08:37:05;;;;;;;2.07;1.97;;;7.90;99.90;;;;;;4939169;29;20178;-64
2022/11/20 08:39:31;;;;;;;0.87;0.87;;;8.10;99.90;;;;;;4939093;29;20201;-63
2022/11/20 08:41:56;;;;;;;0.90;0.90;;;8.20;99.90;;;;;;4939156;29;20166;-64
2022/11/20 08:44:22;;;;;;;2.10;2.00;;;8.30;99.90;;;;;;4938731;29;20321;-63
2022/11/20 08:46:48;;;;;;;1.17;1.17;;;8.40;99.90;;;;;;4939049;29;20177;-61
2022/11/20 08:49:14;;;;;;;1.15;1.05;;;8.30;99.90;;;;;;4939309;29;20177;-63
2022/11/20 08:51:41;;;;;;;1.70;1.50;;;8.40;99.90;;;;;;4938592;29;20260;-66
2022/11/20 08:54:07;;;;;;;1.42;1.33;;;8.50;99.90;;;;;;4928636;29;20201;-64
2022/11/20 08:56:33;;;;;;;1.40;1.30;;;8.60;99.90;;;;;;4938944;29;20260;-65
2022/11/20 08:58:59;;;;;;;1.48;1.42;;;8.60;99.90;;;;;;4938689;29;20209;-65
2022/11/20 09:01:26;;;;;;;2.73;1.57;;;8.80;99.90;;;;;;4938847;29;20170;-71
2022/11/20 09:03:51;;;;;;;0.95;0.95;;;8.90;99.90;;;;;;4938352;29;20888;-68
2022/11/20 09:06:17;;;;;;;1.80;1.40;;;9.10;99.90;;;;;;4938181;29;20237;-67
2022/11/20 09:08:43;;;;;;;2.90;1.50;;;9.20;99.90;;;;;;4938958;29;20181;-72
2022/11/20 09:11:09;;;;;;;1.63;1.53;;;9.30;99.90;;;;;;4938541;29;20252;-69
2022/11/20 09:13:36;;;;;;;1.00;1.00;;;9.30;99.90;;;;;;4936049;29;20332;-67
2022/11/20 09:16:07;;;;;;;1.60;1.10;;;9.20;99.90;;;;;;4940955;29;20553;-68
2022/11/20 09:18:35;;;;;;;1.30;1.25;;;9.20;99.90;;;;;;4957965;28;20208;-69
2022/11/20 09:21:03;;;;;;;1.00;1.00;;;9.20;99.90;;;;;;4956264;29;20252;-66
2022/11/20 09:23:33;;;;;;;1.30;1.20;;;9.10;99.90;;;;;;4937655;28;20185;-66
2022/11/20 09:26:02;;;;;;;1.33;1.05;;;9.00;99.90;;;;;;4937536;29;20212;-67
2022/11/20 09:28:28;;;;;;;1.80;1.70;;;9.00;99.90;;;;;;4936851;29;20181;-67
2022/11/20 09:30:53;;;;;;;1.40;1.10;;;9.00;99.90;;;;;;4937177;29;20170;-67
2022/11/20 09:33:19;;;;;;;0.80;0.80;;;9.00;99.90;;;;;;4937259;29;20177;-67
2022/11/20 09:35:45;;;;;;;1.63;1.10;;;9.00;99.90;;;;;;4937191;29;20669;-66
2022/11/20 09:38:10;;;;;;;1.10;1.10;;;9.00;99.90;;;;;;4936963;29;20177;-67
2022/11/20 09:40:43;;;;;;;1.27;1.27;;;8.90;99.90;;;;;;4937933;29;20712;-67
2022/11/20 09:43:49;;;;;;;1.15;1.05;;;9.00;99.90;;;;;;4937532;29;20405;-67
2022/11/20 09:46:29;;;;;;;1.10;1.10;;;8.90;99.90;;;;;;4938192;29;20321;-67
2022/11/20 09:49:17;;;;;;;2.00;1.30;;;8.90;99.90;;;;;;4937888;29;20181;-69
2022/11/20 09:51:56;;;;;;;1.58;1.48;;;8.90;99.90;;;;;;4937927;29;20570;-67
2022/11/20 09:54:34;;;;;;;1.35;1.25;;;8.90;99.90;;;;;;4937724;29;20191;-67
2022/11/20 09:57:09;;;;;;;0.95;0.95;;;8.90;99.90;;;;;;4938028;29;20192;-68
2022/11/20 09:59:43;;;;;;;0.80;0.80;;;9.00;99.90;;;;;;4937608;29;20197;-66
2022/11/20 10:02:38;;;;;;;0.85;0.82;;;8.90;99.90;;;;;;4937921;29;20173;-69
2022/11/20 10:05:27;;;;;;;0.95;0.90;;;8.90;99.90;;;;;;4932119;29;20709;-67
2022/11/20 10:08:01;;;;;;;0.50;0.50;;;8.90;99.90;;;;;;4937583;29;20166;-70
2022/11/20 10:10:33;;;;;;;0.65;0.65;;;8.90;99.90;;;;;;4937693;29;20169;-69
2022/11/20 10:13:39;;;;;;;0.60;0.60;;;8.90;99.90;;;;;;4937134;29;20204;-68
2022/11/20 10:16:23;;;;;;;0.50;0.50;;;9.00;99.90;;;;;;4937613;29;20583;-69
2022/11/20 10:19:08;;;;;;;0.93;0.75;;;8.90;99.90;;;;;;4937144;29;20212;-68
2022/11/20 10:21:39;;;;;;;1.52;0.70;;;8.90;99.90;;;;;;4937537;29;20166;-68
2022/11/20 10:24:46;;;;;;;0.80;0.73;;;8.80;99.90;;;;;;4937064;29;20197;-68
2022/11/20 10:27:25;;;;;;;1.70;1.50;;;8.70;99.90;;;;;;4937085;29;20656;-68
2022/11/20 10:30:03;;;;;;;1.98;1.48;;;8.70;99.90;;;;;;4937483;29;20184;-68
2022/11/20 10:32:39;;;;;;;1.10;1.00;;;8.70;99.90;;;;;;4937358;29;20177;-69
2022/11/20 10:35:14;;;;;;;0.88;0.88;;;8.60;99.90;;;;;;4936792;29;20197;-68
2022/11/20 10:37:46;;;;;;;1.70;0.80;;;8.60;99.90;;;;;;4937490;29;20176;-68
2022/11/20 10:40:30;;;;;;;0.80;0.80;;;8.60;99.90;;;;;;4936967;29;20562;-68
2022/11/20 10:43:02;;;;;;;1.77;1.20;;;8.50;99.90;;;;;;4936751;29;20165;-69
2022/11/20 10:45:38;;;;;;;1.90;1.38;;;8.50;99.90;;;;;;4951017;28;20197;-69
2022/11/20 10:48:07;;;;;;;0.80;0.80;;;8.40;99.90;;;;;;4937049;29;20165;-68
2022/11/20 10:50:36;;;;;;;0.70;0.70;;;8.40;99.90;;;;;;4936930;29;20215;-69
2022/11/20 10:53:28;;;;;;;0.63;0.63;;;8.40;99.90;;;;;;4936551;29;20236;-68
2022/11/20 10:56:00;;;;;;;0.57;0.57;;;8.40;99.90;;;;;;4936748;29;20200;-68
2022/11/20 10:58:42;;;;;;;0.70;0.70;;;8.40;99.90;;;;;;4936828;29;20198;-68
2022/11/20 11:01:15;;;;;;;0.93;0.93;;;8.40;99.90;;;;;;4936932;29;20256;-68
2022/11/20 11:03:43;;;;;;;1.13;1.13;;;8.40;99.90;;;;;;4936210;29;20676;-69
2022/11/20 11:06:24;;;;;;;1.10;1.00;;;8.40;99.90;;;;;;4936360;29;20276;-67
2022/11/20 11:08:52;;;;;;;1.58;1.20;;;8.30;99.90;;;;;;4938368;29;20172;-68
2022/11/20 11:11:26;;;;;;;1.25;1.25;;;8.30;99.90;;;;;;4955607;28;20177;-68
2022/11/20 11:13:52;;;;;;;0.93;0.93;;;8.40;99.90;;;;;;4955395;28;20337;-68
2022/11/20 11:16:27;;;;;;;1.20;1.10;;;8.40;99.90;;;;;;4954397;29;20213;-67
2022/11/20 11:19:04;;;;;;;0.93;0.82;;;8.40;99.90;;;;;;4955415;28;20279;-67
2022/11/20 11:21:30;;;;;;;1.05;1.00;;;8.50;99.90;;;;;;4955667;28;20165;-68
2022/11/20 11:24:04;;;;;;;1.17;1.07;;;8.50;99.90;;;;;;4954896;28;20199;-68
2022/11/20 11:26:30;;;;;;;0.75;0.75;;;8.50;99.90;;;;;;4955321;28;20259;-68
2022/11/20 11:29:00;;;;;;;1.45;1.35;;;8.50;99.90;;;;;;4954310;29;20652;-68
2022/11/20 11:31:31;;;;;;;1.05;1.05;;;8.50;99.90;;;;;;4955293;28;20185;-68
2022/11/20 11:34:17;;;;;;;1.05;0.77;;;8.50;99.90;;;;;;4954865;28;20665;-68
2022/11/20 11:36:56;;;;;;;2.75;1.45;;;8.70;99.90;;;;;;4955336;28;20185;-68
2022/11/20 11:39:21;;;;;;;1.30;1.20;;;8.80;99.90;;;;;;4955194;28;20657;-68
2022/11/20 11:41:48;;;;;;;1.03;1.03;;;9.00;99.90;;;;;;4955144;28;20177;-68
2022/11/20 11:47:11;;;;;;;1.60;1.50;;;9.50;99.90;;;;;;4955436;29;20231;-68
2022/11/20 11:49:37;;;;;;;1.58;1.10;;;9.70;99.90;;;;;;4955286;28;20174;-68
2022/11/20 11:52:14;;;;;;;1.57;1.47;;;9.90;99.90;;;;;;4955016;28;20216;-68
2022/11/20 11:54:47;;;;;;;1.35;1.10;;;10.00;99.90;;;;;;4954882;28;20213;-68
2022/11/20 11:57:27;;;;;;;1.70;1.60;;;10.00;99.90;;;;;;4954385;28;20273;-68
2022/11/20 12:00:03;;;;;;;0.80;0.80;;;10.00;99.90;;;;;;4955159;28;20237;-68
2022/11/20 12:02:45;;;;;;;1.40;1.23;;;10.10;99.90;;;;;;4955016;28;20258;-68
2022/11/20 12:05:27;;;;;;;1.15;1.15;;;10.00;99.90;;;;;;4954820;28;20217;-68
2022/11/20 12:08:13;;;;;;;2.20;1.15;;;10.10;99.90;;;;;;4955126;28;20164;-68
2022/11/20 12:11:05;;;;;;;1.00;1.00;;;10.10;99.90;;;;;;4954965;28;20177;-68
2022/11/20 12:13:43;;;;;;;1.30;1.30;;;10.20;99.90;;;;;;4939448;28;20193;-68
2022/11/20 12:16:13;;;;;;;1.20;1.20;;;10.30;99.90;;;;;;4955171;28;20166;-68
2022/11/20 12:18:40;;;;;;;1.15;1.00;;;10.40;99.90;;;;;;4954796;28;20226;-68
2022/11/20 12:21:23;;;;;;;1.60;1.50;;;10.50;99.90;;;;;;4954801;28;20516;-68
2022/11/20 12:24:33;;;;;;;1.15;1.05;;;10.60;99.90;;;;;;4954426;28;20530;-68
2022/11/20 12:27:04;;;;;;;1.35;1.25;;;10.60;99.90;;;;;;4919349;28;20266;-68
2022/11/20 12:30:00;;;;;;;1.60;1.50;;;10.60;99.90;;;;;;4954979;28;20175;-68
2022/11/20 12:32:35;;;;;;;1.52;1.42;;;10.50;99.90;;;;;;4950659;29;20187;-68
2022/11/20 12:35:18;;;;;;;1.23;1.20;;;10.50;99.90;;;;;;4954572;28;20602;-68
2022/11/20 12:38:11;;;;;;;1.20;1.10;;;10.60;99.90;;;;;;4954849;28;20384;-69
2022/11/20 12:41:08;;;;;;;1.00;0.98;;;10.60;99.90;;;;;;4954728;28;20509;-68
2022/11/20 12:46:47;;;;;;;0.70;0.70;;;10.30;99.90;;;;;;4954851;29;20180;-68
2022/11/20 12:49:37;;;;;;;1.83;1.20;;;10.20;99.90;;;;;;4954723;29;20208;-69
2022/11/20 12:52:42;;;;;;;0.60;0.60;;;10.10;99.90;;;;;;4954599;28;20183;-68
2022/11/20 12:55:41;;;;;;;1.00;1.00;;;10.00;99.90;;;;;;4954564;28;20252;-68
2022/11/20 12:58:26;;;;;;;3.00;1.02;;;10.00;99.90;;;;;;4954621;28;20221;-69
2022/11/20 13:01:39;;;;;;;2.00;0.90;;;9.90;99.90;;;;;;4954421;28;20176;-68
2022/11/20 13:04:23;;;;;;;1.30;1.20;;;9.80;99.90;;;;;;4954073;28;20592;-70
2022/11/20 13:06:49;;;;;;;0.80;0.80;;;9.80;99.90;;;;;;4954944;28;20260;-68
2022/11/20 13:09:19;;;;;;;1.40;1.00;;;9.70;99.90;;;;;;4957718;29;20203;-67
2022/11/20 13:11:58;;;;;;;0.80;0.80;;;9.80;99.90;;;;;;4957883;28;20177;-68
2022/11/20 13:14:49;;;;;;;2.05;1.38;;;9.80;99.90;;;;;;4957647;28;20549;-68
2022/11/20 13:17:18;;;;;;;3.25;1.27;;;9.90;99.90;;;;;;4956996;29;20260;-68
2022/11/20 13:19:55;;;;;;;2.35;1.42;;;9.90;99.90;;;;;;4958020;28;20205;-67
2022/11/20 13:22:31;;;;;;;0.82;0.82;;;9.90;99.90;;;;;;4957793;28;20561;-68
2022/11/20 13:24:57;;;;;;;1.20;0.93;;;9.90;99.90;;;;;;4957466;28;20193;-68
2022/11/20 13:27:23;;;;;;;1.80;0.90;;;9.90;99.90;;;;;;4956461;29;20184;-67
2022/11/20 13:30:17;;;;;;;1.13;1.10;;;9.80;99.90;;;;;;4957814;28;20269;-68
2022/11/20 13:33:30;;;;;;;0.90;0.90;;;9.80;99.90;;;;;;4957203;28;20176;-69
2022/11/20 13:36:02;;;;;;;0.80;0.80;;;9.80;99.90;;;;;;4953885;29;20548;-68
2022/11/20 13:38:28;;;;;;;1.20;0.77;;;9.80;99.90;;;;;;4957641;28;20209;-68
2022/11/20 13:41:27;;;;;;;0.90;0.90;;;9.80;99.90;;;;;;4957404;28;20162;-68
2022/11/20 13:43:47;;;;;;;1.65;1.38;;;9.80;99.90;;;;;;4956800;28;20221;-68
2022/11/20 13:46:14;;;;;;;0.80;0.80;;;9.90;99.90;;;;;;4957306;28;20252;-68
2022/11/20 13:48:43;;;;;;;0.60;0.60;;;9.90;99.90;;;;;;4957133;28;20646;-69
2022/11/20 13:51:21;;;;;;;0.70;0.70;;;9.80;99.90;;;;;;4956908;28;20177;-68
2022/11/20 13:54:05;;;;;;;1.00;0.75;;;9.80;99.90;;;;;;4956935;28;20595;-68
2022/11/20 13:57:03;;;;;;;0.98;0.85;;;9.70;99.90;;;;;;4957168;28;20177;-68
2022/11/20 13:59:56;;;;;;;1.67;0.82;;;9.60;99.90;;;;;;4957459;28;20291;-68
2022/11/20 14:02:24;;;;;;;0.90;0.90;;;9.60;99.90;;;;;;4957255;29;20169;-68
2022/11/20 14:04:54;;;;;;;1.35;0.60;;;9.50;99.90;;;;;;4956476;28;20212;-68
2022/11/20 14:07:24;;;;;;;1.00;0.95;;;9.50;99.90;;;;;;4956953;28;20197;-69
2022/11/20 14:09:55;;;;;;;0.88;0.85;;;9.50;99.90;;;;;;4956956;28;20196;-67
2022/11/20 14:12:30;;;;;;;1.02;0.90;;;9.50;99.90;;;;;;4956927;28;20261;-68
2022/11/20 14:14:56;;;;;;;0.80;0.80;;;9.50;99.90;;;;;;4956538;28;20592;-68
2022/11/20 14:17:29;;;;;;;0.60;0.60;;;9.60;99.90;;;;;;4956739;28;20173;-68
2022/11/20 14:20:03;;;;;;;0.80;0.80;;;9.60;99.90;;;;;;4955830;28;20320;-68
2022/11/20 14:22:29;;;;;;;0.60;0.60;;;9.60;99.90;;;;;;4956659;28;20173;-68
2022/11/20 14:25:18;;;;;;;0.50;0.50;;;9.70;99.90;;;;;;4956180;28;20247;-68
2022/11/20 14:27:53;;;;;;;0.73;0.73;;;9.70;99.90;;;;;;4956674;28;20173;-68
2022/11/20 14:30:23;;;;;;;5.07;0.98;;;9.70;99.90;;;;;;4956424;28;20264;-68
2022/11/20 14:32:50;;;;;;;0.90;0.90;;;9.50;99.90;;;;;;4956081;28;20180;-68
2022/11/20 14:35:22;;;;;;;1.10;1.00;;;9.40;99.90;;;;;;4956390;28;20661;-69
2022/11/20 14:37:48;;;;;;;1.08;1.00;;;9.30;99.90;;;;;;4956550;28;20215;-68
2022/11/20 14:40:31;;;;;;;1.80;1.20;;;9.10;99.90;;;;;;4956360;28;20228;-68
2022/11/20 14:42:58;;;;;;;0.95;0.95;;;9.00;99.90;;;;;;4955648;28;20176;-68
2022/11/20 14:45:24;;;;;;;1.23;0.95;;;8.80;99.90;;;;;;4956194;28;20228;-68
2022/11/20 14:47:56;;;;;;;1.50;0.73;;;8.80;99.90;;;;;;4956024;28;20169;-68
2022/11/20 14:50:25;;;;;;;0.75;0.75;;;8.60;99.90;;;;;;4955302;28;20518;-67
2022/11/20 14:52:54;;;;;;;1.20;0.85;;;8.60;99.90;;;;;;4955803;28;20216;-68
2022/11/20 14:55:36;;;;;;;0.80;0.80;;;8.50;99.90;;;;;;4954600;28;20553;-67
2022/11/20 14:58:06;;;;;;;0.85;0.85;;;8.50;99.90;;;;;;4955956;28;20228;-68
2022/11/20 15:00:34;;;;;;;0.60;0.60;;;8.50;99.90;;;;;;4956127;28;20204;-68
2022/11/20 15:03:00;;;;;;;1.08;1.08;;;8.40;99.90;;;;;;4955515;28;20169;-68
2022/11/20 15:05:58;;;;;;;0.73;0.73;;;8.30;99.90;;;;;;4955842;28;20252;-68
2022/11/20 15:08:23;;;;;;;6.05;1.20;;;8.20;99.90;;;;;;4933920;28;20220;-68
2022/11/20 15:10:51;;;;;;;0.80;0.80;;;8.10;99.90;;;;;;4955604;28;20172;-68
2022/11/20 15:13:25;;;;;;;1.00;1.00;;;8.10;99.90;;;;;;4955458;28;20260;-68
2022/11/20 15:15:55;;;;;;;1.35;1.25;;;8.00;99.90;;;;;;4955719;28;20176;-67
2022/11/20 15:18:26;;;;;;;0.95;0.95;;;8.00;99.90;;;;;;4955519;28;20183;-67
2022/11/20 15:20:54;;;;;;;1.00;1.00;;;7.90;99.90;;;;;;4955777;28;20169;-68
2022/11/20 15:23:20;;;;;;;6.40;1.00;;;7.80;99.90;;;;;;4955484;28;20208;-68
2022/11/20 15:25:47;;;;;;;0.70;0.70;;;7.80;99.90;;;;;;4955452;28;20219;-67
2022/11/20 15:28:24;;;;;;;1.88;1.25;;;7.70;99.90;;;;;;4955407;28;20183;-68
2022/11/20 15:30:50;;;;;;;1.45;1.35;;;7.70;99.90;;;;;;4954027;28;20180;-68
2022/11/20 15:33:17;;;;;;;2.17;1.53;;;7.70;99.90;;;;;;4955101;28;20172;-68
2022/11/20 15:35:43;;;;;;;1.40;1.30;;;7.60;99.90;;;;;;4955323;28;20236;-68
2022/11/20 15:38:09;;;;;;;0.90;0.90;;;7.60;99.90;;;;;;4955436;28;20171;-68
2022/11/20 15:40:35;;;;;;;1.40;1.05;;;7.50;99.90;;;;;;4955171;28;20289;-68
2022/11/20 15:43:03;;;;;;;1.23;1.17;;;7.50;99.90;;;;;;4954783;28;20721;-68
2022/11/20 15:45:43;;;;;;;1.60;1.15;;;7.40;99.90;;;;;;4955079;28;20243;-68
2022/11/20 15:48:15;;;;;;;1.77;0.90;;;7.40;99.90;;;;;;4955268;28;20540;-68
2022/11/20 15:51:02;;;;;;;1.10;1.10;;;7.30;99.90;;;;;;4955217;28;20254;-69
2022/11/20 15:53:27;;;;;;;1.15;1.05;;;7.30;99.90;;;;;;4955273;28;20181;-68
2022/11/20 15:55:53;;;;;;;1.10;1.10;;;7.30;99.90;;;;;;4955223;28;20529;-69
2022/11/20 15:58:19;;;;;;;1.27;1.17;;;7.30;99.90;;;;;;4955074;28;20183;-68
2022/11/20 16:00:44;;;;;;;1.00;1.00;;;7.20;99.90;;;;;;4954830;28;20173;-68
2022/11/20 16:03:14;;;;;;;1.83;1.73;;;7.20;99.90;;;;;;4954971;28;20176;-68
2022/11/20 16:05:40;;;;;;;1.40;1.30;;;7.20;99.90;;;;;;4954781;28;20446;-68
2022/11/20 16:08:05;;;;;;;1.07;0.97;;;7.10;99.90;;;;;;4955235;28;20172;-68
2022/11/20 16:10:31;;;;;;;1.37;1.13;;;7.10;99.90;;;;;;4954820;28;20182;-68
2022/11/20 16:15:46;;;;;;;0.88;0.88;;;7.00;99.90;;;;;;4955274;28;20202;-69
2022/11/20 16:18:15;;;;;;;1.63;1.48;;;7.00;99.90;;;;;;4955177;28;20250;-69
2022/11/20 16:20:41;;;;;;;0.95;0.95;;;7.00;99.90;;;;;;4954814;28;20179;-69
2022/11/20 16:23:07;;;;;;;0.93;0.93;;;7.00;99.90;;;;;;4953328;29;20182;-69
2022/11/20 16:25:33;;;;;;;1.40;1.30;;;6.90;99.90;;;;;;4954858;28;20189;-69
2022/11/20 16:27:58;;;;;;;1.83;1.70;;;6.90;99.90;;;;;;4954847;28;20410;-69
2022/11/20 16:30:24;;;;;;;1.00;1.00;;;6.90;99.90;;;;;;4954958;28;20171;-69
2022/11/20 16:32:50;;;;;;;1.03;0.93;;;6.90;99.90;;;;;;4954515;28;20175;-69
2022/11/20 16:35:15;;;;;;;1.33;1.27;;;6.90;99.90;;;;;;4954638;28;20202;-69
2022/11/20 16:37:42;;;;;;;1.50;1.07;;;6.90;99.90;;;;;;4955096;28;20182;-68
2022/11/20 16:40:09;;;;;;;1.77;1.27;;;6.90;99.90;;;;;;4954637;28;20195;-68
2022/11/20 16:42:36;;;;;;;1.00;1.00;;;7.00;99.90;;;;;;4956000;28;20655;-69
2022/11/20 16:45:03;;;;;;;1.45;1.35;;;7.00;99.90;;;;;;4958246;28;20196;-69
2022/11/20 16:47:33;;;;;;;2.28;1.40;;;7.10;99.90;;;;;;4958566;28;20257;-69
2022/11/20 16:49:59;;;;;;;1.60;1.50;;;7.10;99.90;;;;;;4958367;28;20187;-68
2022/11/20 16:52:24;;;;;;;1.50;1.40;;;7.20;99.90;;;;;;4958358;28;20176;-68
2022/11/20 16:54:50;;;;;;;1.10;1.10;;;7.20;99.90;;;;;;4957797;28;20679;-68
2022/11/20 16:57:16;;;;;;;1.27;1.10;;;7.30;99.90;;;;;;4958272;28;20253;-69
2022/11/20 16:59:41;;;;;;;1.67;1.57;;;7.40;99.90;;;;;;4958130;28;20200;-69
2022/11/20 17:02:09;;;;;;;2.77;1.20;;;7.50;99.90;;;;;;4958050;28;20543;-68
2022/11/20 17:04:35;;;;;;;1.55;1.45;;;7.50;99.90;;;;;;4957482;28;20185;-68
2022/11/20 17:07:02;;;;;;;1.40;1.30;;;7.50;99.90;;;;;;4958351;28;20176;-68
2022/11/20 17:09:27;;;;;;;1.45;1.35;;;7.60;99.90;;;;;;4958177;28;20190;-68
2022/11/20 17:11:53;;;;;;;1.63;1.50;;;7.60;99.90;;;;;;4958034;28;20685;-68
2022/11/20 17:14:19;;;;;;;3.63;2.13;;;7.70;99.90;;;;;;4957506;28;20230;-68
2022/11/20 17:16:45;;;;;;;2.23;2.03;;;7.60;99.90;;;;;;4957442;28;20206;-68
2022/11/20 17:19:11;;;;;;;1.05;1.05;;;7.70;99.90;;;;;;4957627;28;20320;-68
2022/11/20 17:21:38;;;;;;;0.95;0.95;;;7.70;99.90;;;;;;4956456;29;20243;-68
2022/11/20 17:24:05;;;;;;;1.33;1.05;;;7.80;99.90;;;;;;4957384;28;20185;-68
2022/11/20 17:26:32;;;;;;;1.42;1.30;;;7.70;99.90;;;;;;4957598;28;20208;-69
2022/11/20 17:29:00;;;;;;;1.20;1.20;;;7.70;99.90;;;;;;4957612;28;20189;-69
2022/11/20 17:31:27;;;;;;;3.42;1.42;;;7.80;99.90;;;;;;4957428;28;20176;-69
2022/11/20 17:33:53;;;;;;;1.63;1.52;;;7.80;99.90;;;;;;4938950;28;20192;-71
2022/11/20 17:36:19;;;;;;;1.13;1.13;;;7.70;99.90;;;;;;4937928;29;20207;-70
2022/11/20 17:38:45;;;;;;;1.83;1.73;;;7.80;99.90;;;;;;4931164;29;20468;-70
2022/11/20 17:41:21;;;;;;;1.77;1.63;;;7.80;99.90;;;;;;4938197;29;20436;-68
2022/11/20 17:43:47;;;;;;;2.00;1.80;;;7.80;99.90;;;;;;4936577;29;20432;-70
2022/11/20 17:46:18;;;;;;;2.33;1.85;;;7.80;99.90;;;;;;4937547;29;20172;-69
2022/11/20 17:48:44;;;;;;;1.20;1.10;;;7.80;99.90;;;;;;4937546;29;20226;-69
2022/11/20 17:51:18;;;;;;;1.17;1.17;;;7.80;99.90;;;;;;4937257;28;20177;-70
2022/11/20 17:53:47;;;;;;;1.38;1.27;;;7.80;99.90;;;;;;4917454;29;20205;-71
2022/11/20 17:58:56;;;;;;;1.90;1.80;;;7.80;99.90;;;;;;4936392;29;20206;-71
2022/11/20 18:01:22;;;;;;;2.60;1.40;;;7.90;99.90;;;;;;4936861;29;20176;-68
2022/11/20 18:03:48;;;;;;;1.00;1.00;;;7.80;99.90;;;;;;4936613;29;20500;-69
2022/11/20 18:06:17;;;;;;;1.50;1.40;;;7.80;99.90;;;;;;4936717;29;20275;-68
2022/11/20 18:08:43;;;;;;;2.05;1.63;;;7.80;99.90;;;;;;4937150;29;20429;-66
2022/11/20 18:11:17;;;;;;;1.17;1.17;;;7.80;99.90;;;;;;4935968;29;20185;-67
2022/11/20 18:16:32;;;;;;;1.58;1.27;;;7.80;99.90;;;;;;4928906;29;20195;-68
2022/11/20 18:18:58;;;;;;;1.58;1.48;;;7.80;99.90;;;;;;4935344;29;20220;-68
2022/11/20 18:21:26;;;;;;;1.58;1.48;;;7.80;99.90;;;;;;4936386;29;20184;-70
2022/11/20 18:23:53;;;;;;;1.40;1.33;;;7.70;99.90;;;;;;4936599;29;20201;-69
2022/11/20 18:26:18;;;;;;;2.22;2.03;;;7.80;99.90;;;;;;4937100;29;20173;-69
2022/11/20 18:28:44;;;;;;;2.23;2.10;;;7.70;99.90;;;;;;4935862;29;20593;-68
2022/11/20 18:31:11;;;;;;;1.67;1.57;;;7.80;99.90;;;;;;4936612;29;20181;-66
2022/11/20 18:33:37;;;;;;;3.65;1.90;;;7.80;99.90;;;;;;4936490;29;20433;-65
2022/11/20 18:36:18;;;;;;;1.00;0.90;;;7.80;99.90;;;;;;4937039;29;20200;-67